Atwater, Ohio
Current Conditions -  °F | °C
As of 5:51 AM on Monday 22 Dec 2014 (Local Time) from KCAK Reporting Station
Haze Haze  
Wind Chill: 17°   Ceiling: 25000
Heat Index: 23°   Visibility: 5mi
Dew Point: 19°   Wind: 5mph
Humidity: 85%   Direction: 70°ENE
Pressure: 30.09"   Gusts: NA
Location:  41.02°N, 81.16°W
Report Text: KCAK 221051Z 07004KT 5SM BR BKN250 M05/M07 A3009 RMK AO2 SLP205 T10501072
Loading
Personal Weather Stations






























Interactive Weather Map New forecast layout! Learn more

10-Day Weather Forecast

Advertisements
Track Severe Weather on mobile